createdAt,value
2023-05-03T00:00:29.935Z,98452.03
2023-05-03T00:03:09.873Z,98459.63
2023-05-03T00:05:42.270Z,98455.44
2023-05-03T00:08:14.163Z,98459.69
2023-05-03T00:10:46.830Z,98466.63
2023-05-03T00:13:18.732Z,98461.69
2023-05-03T00:16:06.145Z,98475.91
2023-05-03T00:18:40.947Z,98472.66
2023-05-03T00:21:12.189Z,98479.53
2023-05-03T00:23:48.935Z,98474.06
2023-05-03T00:26:20.851Z,98474.31
2023-05-03T00:28:55.264Z,98477.38
2023-05-03T00:31:28.407Z,98479.91
2023-05-03T00:34:04.157Z,98489.09
2023-05-03T00:36:37.291Z,98491.53
2023-05-03T00:39:11.607Z,98493.63
2023-05-03T00:41:46.040Z,98496.75
2023-05-03T00:44:19.617Z,98498.31
2023-05-03T00:46:53.076Z,98489.53
2023-05-03T00:49:26.376Z,98487.69
2023-05-03T00:52:12.260Z,98488.16
2023-05-03T00:54:45.933Z,98481.75
2023-05-03T00:57:20.469Z,98482.22
2023-05-03T00:59:53.736Z,98474.38
2023-05-03T01:02:26.270Z,98474.41
2023-05-03T01:04:58.238Z,98476.06
2023-05-03T01:07:48.327Z,98471.78
2023-05-03T01:10:35.845Z,98476.91
2023-05-03T01:13:41.433Z,98470.94
2023-05-03T01:16:31.489Z,98473.00
2023-05-03T01:19:16.777Z,98472.00
2023-05-03T01:22:08.498Z,98471.00
2023-05-03T01:24:48.524Z,98467.09
2023-05-03T01:27:22.524Z,98469.53
2023-05-03T01:30:18.634Z,98462.09
2023-05-03T01:33:06.859Z,98469.16
2023-05-03T01:36:14.640Z,98472.13
2023-05-03T01:38:47.251Z,98468.75
2023-05-03T01:41:21.141Z,98470.63
2023-05-03T01:44:04.352Z,98476.59
2023-05-03T01:46:45.403Z,98478.88
2023-05-03T01:49:17.529Z,98480.63
2023-05-03T01:51:49.919Z,98483.75
2023-05-03T01:54:21.683Z,98483.00
2023-05-03T01:56:57.996Z,98483.63
2023-05-03T01:59:46.641Z,98480.63
2023-05-03T02:02:21.945Z,98476.81
2023-05-03T02:04:55.873Z,98470.97
2023-05-03T02:07:29.306Z,98480.22
2023-05-03T02:10:04.658Z,98479.28
2023-05-03T02:12:39.124Z,98488.75
2023-05-03T02:15:17.574Z,98485.06
2023-05-03T02:17:53.575Z,98496.06
2023-05-03T02:20:36.626Z,98495.63
2023-05-03T02:23:10.710Z,98498.91
2023-05-03T02:25:51.034Z,98502.03
2023-05-03T02:28:26.385Z,98505.91
2023-05-03T02:30:59.744Z,98505.22
2023-05-03T02:33:31.935Z,98517.63
2023-05-03T02:36:03.717Z,98515.63
2023-05-03T02:38:35.939Z,98521.25
2023-05-03T02:41:10.543Z,98523.41
2023-05-03T02:46:41.591Z,98529.34
2023-05-03T02:49:14.665Z,98532.91
2023-05-03T02:51:47.842Z,98535.38
2023-05-03T02:54:20.426Z,98542.00
2023-05-03T02:56:52.351Z,98543.91
2023-05-03T02:59:24.925Z,98548.81
2023-05-03T03:01:55.804Z,98547.09
2023-05-03T03:04:32.278Z,98551.78
2023-05-03T03:07:01.582Z,98552.72
2023-05-03T03:09:31.868Z,98558.59
2023-05-03T03:12:05.135Z,98556.13
2023-05-03T03:14:35.640Z,98564.41
2023-05-03T03:17:13.218Z,98576.97
2023-05-03T03:19:42.898Z,98577.59
2023-05-03T03:22:12.461Z,98575.91
2023-05-03T03:24:41.711Z,98573.97
2023-05-03T03:27:10.822Z,98586.38
2023-05-03T03:29:40.123Z,98583.53
2023-05-03T03:32:10.327Z,98581.78
2023-05-03T03:34:39.741Z,98585.91
2023-05-03T03:37:09.677Z,98587.13
2023-05-03T03:39:43.075Z,98587.13
2023-05-03T03:42:17.175Z,98589.88
2023-05-03T03:44:47.686Z,98596.69
2023-05-03T03:47:16.865Z,98595.69
2023-05-03T03:49:46.701Z,98601.09
2023-05-03T03:52:16.234Z,98595.38
2023-05-03T03:54:45.528Z,98604.19
2023-05-03T03:57:15.512Z,98609.06
2023-05-03T03:59:45.444Z,98609.66
2023-05-03T04:02:14.562Z,98600.56
2023-05-03T04:04:44.295Z,98616.63
2023-05-03T04:07:13.748Z,98610.25
2023-05-03T04:09:44.500Z,98612.53
2023-05-03T04:12:14.451Z,98614.28
2023-05-03T04:14:45.951Z,98613.13
2023-05-03T04:17:15.560Z,98611.69
2023-05-03T04:19:44.773Z,98620.34
2023-05-03T04:22:14.938Z,98612.16
2023-05-03T04:24:44.994Z,98622.50
2023-05-03T04:27:15.810Z,98620.34
2023-05-03T04:29:45.011Z,98625.31
2023-05-03T04:32:15.461Z,98623.81
2023-05-03T04:34:46.671Z,98616.09
2023-05-03T04:37:17.441Z,98619.75
2023-05-03T04:43:15.983Z,98631.25
2023-05-03T04:45:48.267Z,98635.91
2023-05-03T04:48:47.409Z,98630.44
2023-05-03T04:51:18.336Z,98629.56
2023-05-03T04:53:48.765Z,98628.41
2023-05-03T04:56:38.443Z,98629.63
2023-05-03T04:59:16.414Z,98634.38
2023-05-03T05:01:46.074Z,98639.69
2023-05-03T05:04:15.580Z,98637.03
2023-05-03T05:06:49.673Z,98638.63
2023-05-03T05:09:34.691Z,98634.47
2023-05-03T05:12:05.750Z,98630.19
2023-05-03T05:14:40.132Z,98635.25
2023-05-03T05:17:10.425Z,98636.09
2023-05-03T05:19:39.850Z,98631.13
2023-05-03T05:22:09.139Z,98626.00
2023-05-03T05:24:47.032Z,98637.56
2023-05-03T05:27:17.773Z,98633.13
2023-05-03T05:29:47.365Z,98632.53
2023-05-03T05:32:16.222Z,98635.31
2023-05-03T05:34:46.692Z,98632.94
2023-05-03T05:37:19.269Z,98631.84
2023-05-03T05:39:49.456Z,98622.69
2023-05-03T05:42:27.798Z,98622.13
2023-05-03T05:45:02.168Z,98618.88
2023-05-03T05:47:32.077Z,98623.56
2023-05-03T05:50:02.044Z,98614.28
2023-05-03T05:52:33.013Z,98608.78
2023-05-03T05:55:02.167Z,98610.50
2023-05-03T05:57:30.978Z,98602.22
2023-05-03T06:00:01.209Z,98593.25
2023-05-03T06:02:32.945Z,98591.31
2023-05-03T06:05:02.738Z,98588.03
2023-05-03T06:07:31.527Z,98583.19
2023-05-03T06:10:01.031Z,98582.53
2023-05-03T06:13:01.973Z,98587.97
2023-05-03T06:15:38.609Z,98587.34
2023-05-03T06:18:10.298Z,98583.88
2023-05-03T06:20:39.388Z,98567.97
2023-05-03T06:23:08.745Z,98570.50
2023-05-03T06:25:39.666Z,98565.16
2023-05-03T06:28:09.390Z,98560.56
2023-05-03T06:30:38.817Z,98552.31
2023-05-03T06:33:14.894Z,98554.09
2023-05-03T06:35:48.176Z,98538.44
2023-05-03T06:38:20.600Z,98555.50
2023-05-03T06:40:51.033Z,98542.78
2023-05-03T06:43:21.941Z,98534.94
2023-05-03T06:46:03.255Z,98535.16
2023-05-03T06:48:32.654Z,98528.78
2023-05-03T06:51:01.529Z,98525.97
2023-05-03T06:53:31.434Z,98529.25
2023-05-03T06:56:00.538Z,98531.75
2023-05-03T06:58:30.103Z,98529.63
2023-05-03T07:00:59.270Z,98529.84
2023-05-03T07:03:28.803Z,98522.78
2023-05-03T07:05:58.057Z,98522.13
2023-05-03T07:08:26.966Z,98524.06
2023-05-03T07:10:55.936Z,98519.84
2023-05-03T07:13:25.433Z,98513.72
2023-05-03T07:15:54.657Z,98511.31
2023-05-03T07:18:23.899Z,98508.44
2023-05-03T07:20:52.847Z,98512.56
2023-05-03T07:26:11.346Z,98506.75
2023-05-03T07:28:41.186Z,98501.06
2023-05-03T07:34:13.360Z,98505.91
2023-05-03T07:40:43.207Z,98497.50
2023-05-03T07:43:12.568Z,98484.66
2023-05-03T07:45:41.528Z,98486.16
2023-05-03T07:48:10.958Z,98482.78
2023-05-03T07:50:42.905Z,98470.28
2023-05-03T07:53:13.541Z,98469.28
2023-05-03T07:55:42.781Z,98465.47
2023-05-03T07:58:11.708Z,98463.63
2023-05-03T08:00:40.986Z,98457.19
2023-05-03T08:03:10.140Z,98449.81
2023-05-03T08:05:39.635Z,98445.34
2023-05-03T08:08:09.431Z,98449.03
2023-05-03T08:10:38.982Z,98439.47
2023-05-03T08:13:08.451Z,98443.47
2023-05-03T08:15:37.594Z,98434.75
2023-05-03T08:18:06.990Z,98429.69
2023-05-03T08:20:37.971Z,98419.03
2023-05-03T08:23:07.013Z,98409.06
2023-05-03T08:25:38.271Z,98409.16
2023-05-03T08:28:09.289Z,98404.56
2023-05-03T08:30:38.948Z,98395.66
2023-05-03T08:33:10.808Z,98396.19
2023-05-03T08:35:40.023Z,98399.34
2023-05-03T08:38:09.120Z,98388.25
2023-05-03T08:40:40.800Z,98384.09
2023-05-03T08:43:11.019Z,98377.31
2023-05-03T08:45:40.245Z,98380.78
2023-05-03T08:48:09.469Z,98369.28
2023-05-03T08:50:43.206Z,98362.28
2023-05-03T08:53:12.877Z,98357.56
2023-05-03T08:55:42.358Z,98352.88
2023-05-03T08:58:13.738Z,98337.66
2023-05-03T09:00:45.618Z,98335.63
2023-05-03T09:03:15.053Z,98333.53
2023-05-03T09:05:45.256Z,98321.34
2023-05-03T09:08:15.792Z,98316.41
2023-05-03T09:10:45.194Z,98309.13
2023-05-03T09:13:14.222Z,98306.28
2023-05-03T09:15:46.377Z,98296.00
2023-05-03T09:18:18.443Z,98295.25
2023-05-03T09:20:56.001Z,98284.25
2023-05-03T09:23:32.565Z,98281.53
2023-05-03T09:26:02.058Z,98277.66
2023-05-03T09:28:31.054Z,98269.94
2023-05-03T09:31:08.803Z,98266.66
2023-05-03T09:33:38.950Z,98264.13
2023-05-03T09:36:08.301Z,98255.38
2023-05-03T09:38:40.306Z,98250.63
2023-05-03T09:41:09.971Z,98240.41
2023-05-03T09:43:51.410Z,98238.78
2023-05-03T09:46:21.566Z,98239.53
2023-05-03T09:48:51.326Z,98238.03
2023-05-03T09:51:21.279Z,98237.78
2023-05-03T09:53:51.030Z,98231.38
2023-05-03T09:56:23.647Z,98234.38
2023-05-03T09:58:52.427Z,98227.75
2023-05-03T10:01:24.974Z,98220.72
2023-05-03T10:03:59.145Z,98216.81
2023-05-03T10:06:50.286Z,98207.41
2023-05-03T10:09:40.953Z,98206.84
2023-05-03T10:12:13.548Z,98199.00
2023-05-03T10:14:44.979Z,98194.44
2023-05-03T10:17:47.285Z,98194.53
2023-05-03T10:20:53.463Z,98183.50
2023-05-03T10:23:22.668Z,98193.13
2023-05-03T10:26:11.123Z,98179.59
2023-05-03T10:28:40.924Z,98178.06
2023-05-03T10:31:46.643Z,98172.94
2023-05-03T10:34:33.591Z,98169.16
2023-05-03T10:37:12.697Z,98163.88
2023-05-03T10:39:46.819Z,98174.16
2023-05-03T10:42:17.163Z,98167.91
2023-05-03T10:44:56.777Z,98166.88
2023-05-03T10:47:26.293Z,98155.38
2023-05-03T10:50:14.801Z,98156.78
2023-05-03T10:52:44.428Z,98151.50
2023-05-03T10:55:25.935Z,98153.28
2023-05-03T10:57:57.596Z,98145.22
2023-05-03T11:00:39.954Z,98142.97
2023-05-03T11:03:28.887Z,98148.19
2023-05-03T11:05:58.424Z,98146.16
2023-05-03T11:08:29.017Z,98146.66
2023-05-03T11:11:03.465Z,98145.41
2023-05-03T11:13:33.140Z,98156.81
2023-05-03T11:16:07.014Z,98157.97
2023-05-03T11:18:36.634Z,98154.50
2023-05-03T11:21:05.889Z,98153.38
2023-05-03T11:23:35.093Z,98157.44
2023-05-03T11:26:08.136Z,98152.53
2023-05-03T11:28:40.314Z,98156.97
2023-05-03T11:31:14.447Z,98151.91
2023-05-03T11:33:44.124Z,98148.09
2023-05-03T11:36:15.875Z,98153.81
2023-05-03T11:38:45.190Z,98143.72
2023-05-03T11:41:24.532Z,98154.44
2023-05-03T11:44:03.782Z,98150.53
2023-05-03T11:46:38.292Z,98150.69
2023-05-03T11:49:07.782Z,98148.56
2023-05-03T11:51:36.854Z,98144.59
2023-05-03T11:54:21.002Z,98147.34
2023-05-03T11:56:56.433Z,98151.00
2023-05-03T12:03:34.056Z,98150.72
2023-05-03T12:06:04.702Z,98163.00
2023-05-03T12:08:37.818Z,98150.00
2023-05-03T12:11:09.930Z,98147.88
2023-05-03T12:13:40.834Z,98156.19
2023-05-03T12:16:14.764Z,98153.94
2023-05-03T12:19:04.016Z,98150.50
2023-05-03T12:22:04.664Z,98128.00
2023-05-03T12:28:40.902Z,98137.44
2023-05-03T12:31:11.997Z,98141.88
2023-05-03T12:33:43.707Z,98125.34
2023-05-03T12:36:14.873Z,98139.34
2023-05-03T12:38:44.495Z,98131.53
2023-05-03T12:41:15.899Z,98130.47
2023-05-03T12:43:52.613Z,98124.94
2023-05-03T12:46:33.857Z,98122.66
2023-05-03T12:49:06.779Z,98122.84
2023-05-03T12:51:36.822Z,98131.63
2023-05-03T12:54:12.632Z,98127.94
2023-05-03T12:56:41.945Z,98120.97
2023-05-03T13:06:47.947Z,98130.47
2023-05-03T13:09:21.129Z,98133.22
2023-05-03T13:11:53.651Z,98144.13
2023-05-03T13:14:23.421Z,98132.78
2023-05-03T13:16:52.975Z,98145.84
2023-05-03T13:19:22.157Z,98150.09
2023-05-03T13:21:51.053Z,98152.06
2023-05-03T13:24:20.280Z,98153.31
2023-05-03T13:26:50.110Z,98155.66
2023-05-03T13:29:19.178Z,98163.75
2023-05-03T13:31:48.163Z,98159.84
2023-05-03T13:34:17.934Z,98163.09
2023-05-03T13:36:46.853Z,98165.19
2023-05-03T13:39:16.155Z,98168.47
2023-05-03T13:41:48.027Z,98170.72
2023-05-03T13:44:17.731Z,98171.03
2023-05-03T13:46:47.148Z,98177.97
2023-05-03T13:49:16.288Z,98181.72
2023-05-03T13:51:45.253Z,98177.34
2023-05-03T13:54:14.435Z,98182.81
2023-05-03T13:56:43.783Z,98190.22
2023-05-03T13:59:17.187Z,98185.06
2023-05-03T14:01:46.945Z,98190.44
2023-05-03T14:04:16.117Z,98203.03
2023-05-03T14:06:45.340Z,98201.66
2023-05-03T14:09:14.890Z,98203.38
2023-05-03T14:11:44.110Z,98200.41
2023-05-03T14:14:13.527Z,98206.47
2023-05-03T14:16:42.897Z,98213.84
2023-05-03T14:19:12.237Z,98214.44
2023-05-03T14:21:46.049Z,98211.53
2023-05-03T14:24:15.274Z,98208.59
2023-05-03T14:26:44.270Z,98207.41
2023-05-03T14:29:13.632Z,98215.91
2023-05-03T14:31:42.675Z,98209.22
2023-05-03T14:34:11.700Z,98213.75
2023-05-03T14:36:44.719Z,98212.50
2023-05-03T14:39:15.562Z,98224.72
2023-05-03T14:41:44.878Z,98222.09
2023-05-03T14:44:13.879Z,98216.38
2023-05-03T14:46:43.047Z,98222.16
2023-05-03T14:49:12.161Z,98219.59
2023-05-03T14:51:44.104Z,98224.28
2023-05-03T14:54:13.494Z,98230.75
2023-05-03T14:56:42.344Z,98224.78
2023-05-03T14:59:11.368Z,98224.66
2023-05-03T15:01:40.548Z,98228.31
2023-05-03T15:04:11.458Z,98232.56
2023-05-03T15:06:42.223Z,98235.34
2023-05-03T15:09:13.657Z,98242.31
2023-05-03T15:11:43.139Z,98243.34
2023-05-03T15:14:12.420Z,98238.75
2023-05-03T15:16:41.610Z,98233.56
2023-05-03T15:19:10.633Z,98230.94
2023-05-03T15:21:52.451Z,98242.94
2023-05-03T15:24:23.206Z,98241.16
2023-05-03T15:26:52.611Z,98243.78
2023-05-03T15:29:22.493Z,98252.50
2023-05-03T15:31:51.773Z,98253.72
2023-05-03T15:34:20.707Z,98254.56
2023-05-03T15:36:49.791Z,98254.75
2023-05-03T15:39:18.829Z,98259.47
2023-05-03T15:41:48.162Z,98260.22
2023-05-03T15:44:17.194Z,98262.19
2023-05-03T15:46:46.536Z,98263.22
2023-05-03T15:49:15.492Z,98265.91
2023-05-03T15:51:44.631Z,98274.63
2023-05-03T15:54:13.636Z,98280.47
2023-05-03T15:56:42.967Z,98274.09
2023-05-03T15:59:15.860Z,98277.91
2023-05-03T16:01:45.227Z,98284.00
2023-05-03T16:04:14.194Z,98282.25
2023-05-03T16:06:43.464Z,98294.63
2023-05-03T16:09:13.595Z,98291.53
2023-05-03T16:11:42.641Z,98286.94
2023-05-03T16:14:11.693Z,98285.50
2023-05-03T16:16:41.283Z,98289.84
2023-05-03T16:19:10.297Z,98285.81
2023-05-03T16:21:39.360Z,98285.81
2023-05-03T16:24:08.758Z,98291.72
2023-05-03T16:26:37.873Z,98294.41
2023-05-03T16:29:07.061Z,98301.63
2023-05-03T16:31:35.885Z,98302.19
2023-05-03T16:34:05.197Z,98303.31
2023-05-03T16:36:34.637Z,98306.22
2023-05-03T16:39:03.731Z,98317.00
2023-05-03T16:41:32.609Z,98315.75
2023-05-03T16:44:01.803Z,98313.72
2023-05-03T16:46:37.076Z,98312.91
2023-05-03T16:49:07.437Z,98317.63
2023-05-03T16:51:36.783Z,98323.75
2023-05-03T16:54:05.996Z,98331.19
2023-05-03T16:56:35.349Z,98332.22
2023-05-03T16:59:05.117Z,98327.31
2023-05-03T17:01:34.380Z,98331.38
2023-05-03T17:04:03.441Z,98320.91
2023-05-03T17:06:32.673Z,98326.72
2023-05-03T17:09:01.840Z,98340.16
2023-05-03T17:11:31.435Z,98331.16
2023-05-03T17:14:01.920Z,98339.41
2023-05-03T17:16:31.107Z,98339.56
2023-05-03T17:19:00.049Z,98336.09
2023-05-03T17:21:29.149Z,98337.28
2023-05-03T17:23:57.964Z,98341.63
2023-05-03T17:26:27.125Z,98350.13
2023-05-03T17:28:55.887Z,98343.97
2023-05-03T17:31:25.005Z,98356.19
2023-05-03T17:33:54.027Z,98360.09
2023-05-03T17:36:23.196Z,98351.13
2023-05-03T17:38:52.005Z,98349.47
2023-05-03T17:41:21.361Z,98344.22
2023-05-03T17:43:51.590Z,98340.16
2023-05-03T17:46:21.328Z,98336.94
2023-05-03T17:48:50.329Z,98332.22
2023-05-03T17:51:19.395Z,98336.63
2023-05-03T17:53:48.651Z,98335.75
2023-05-03T17:56:19.332Z,98339.97
2023-05-03T17:58:48.508Z,98336.41
2023-05-03T18:01:17.598Z,98338.16
2023-05-03T18:03:46.795Z,98338.00
2023-05-03T18:06:15.843Z,98332.56
2023-05-03T18:08:45.204Z,98336.63
2023-05-03T18:11:14.172Z,98328.94
2023-05-03T18:13:43.760Z,98326.47
2023-05-03T18:16:13.198Z,98323.34
2023-05-03T18:18:42.310Z,98330.28
2023-05-03T18:21:12.731Z,98337.63
2023-05-03T18:23:43.146Z,98337.63
2023-05-03T18:26:13.574Z,98334.16
2023-05-03T18:28:42.470Z,98336.28
2023-05-03T18:31:12.684Z,98330.69
2023-05-03T18:33:41.895Z,98333.94
2023-05-03T18:36:12.503Z,98330.47
2023-05-03T18:38:42.902Z,98336.63
2023-05-03T18:41:17.619Z,98338.66
2023-05-03T18:43:49.000Z,98339.34
2023-05-03T18:46:20.158Z,98345.50
2023-05-03T18:48:49.431Z,98346.06
2023-05-03T18:51:18.246Z,98350.72
2023-05-03T18:53:47.295Z,98348.84
2023-05-03T18:56:16.577Z,98349.78
2023-05-03T18:58:47.849Z,98349.78
2023-05-03T19:01:17.218Z,98364.16
2023-05-03T19:03:46.156Z,98358.41
2023-05-03T19:06:15.529Z,98356.72
2023-05-03T19:08:44.781Z,98356.19
2023-05-03T19:11:17.984Z,98348.44
2023-05-03T19:13:47.624Z,98354.34
2023-05-03T19:16:16.649Z,98353.41
2023-05-03T19:18:46.340Z,98349.69
2023-05-03T19:21:18.281Z,98350.78
2023-05-03T19:23:47.639Z,98357.03
2023-05-03T19:26:16.578Z,98348.47
2023-05-03T19:28:45.967Z,98349.22
2023-05-03T19:31:14.872Z,98349.56
2023-05-03T19:33:43.851Z,98350.09
2023-05-03T19:36:15.663Z,98340.31
2023-05-03T19:38:44.800Z,98347.56
2023-05-03T19:41:13.652Z,98344.50
2023-05-03T19:43:43.182Z,98340.50
2023-05-03T19:46:12.192Z,98339.59
2023-05-03T19:48:41.398Z,98341.28
2023-05-03T19:51:15.323Z,98344.16
2023-05-03T19:53:46.551Z,98340.50
2023-05-03T19:56:16.940Z,98339.03
2023-05-03T19:58:45.734Z,98337.00
2023-05-03T20:01:15.590Z,98342.94
2023-05-03T20:03:45.359Z,98345.91
2023-05-03T20:06:15.624Z,98346.72
2023-05-03T20:08:45.605Z,98348.09
2023-05-03T20:11:15.397Z,98339.94
2023-05-03T20:13:45.183Z,98340.81
2023-05-03T20:16:15.155Z,98337.19
2023-05-03T20:18:44.916Z,98332.09
2023-05-03T20:21:15.299Z,98325.19
2023-05-03T20:23:44.672Z,98327.53
2023-05-03T20:26:14.841Z,98322.47
2023-05-03T20:28:45.923Z,98328.50
2023-05-03T20:31:17.140Z,98334.75
2023-05-03T20:33:48.470Z,98329.44
2023-05-03T20:36:19.795Z,98334.59
2023-05-03T20:38:50.284Z,98342.00
2023-05-03T20:41:21.347Z,98338.31
2023-05-03T20:43:57.077Z,98335.69
2023-05-03T20:46:28.264Z,98331.84
2023-05-03T20:49:00.194Z,98330.06
2023-05-03T20:51:31.430Z,98337.34
2023-05-03T20:54:02.803Z,98341.81
2023-05-03T20:56:35.433Z,98340.00
2023-05-03T20:59:05.166Z,98348.28
2023-05-03T21:01:35.795Z,98348.03
2023-05-03T21:04:07.190Z,98351.28
2023-05-03T21:06:39.957Z,98350.28
2023-05-03T21:09:12.003Z,98355.34
2023-05-03T21:11:43.928Z,98355.72
2023-05-03T21:14:16.016Z,98349.66
2023-05-03T21:16:46.763Z,98350.88
2023-05-03T21:19:17.839Z,98341.97
2023-05-03T21:21:48.715Z,98336.03
2023-05-03T21:24:20.498Z,98340.31
2023-05-03T21:26:51.185Z,98345.19
2023-05-03T21:29:21.860Z,98347.03
2023-05-03T21:31:53.112Z,98353.13
2023-05-03T21:34:24.385Z,98347.97
2023-05-03T21:36:55.727Z,98347.97
2023-05-03T21:39:26.233Z,98343.72
2023-05-03T21:41:56.799Z,98346.44
2023-05-03T21:44:28.315Z,98342.22
2023-05-03T21:46:59.524Z,98343.28
2023-05-03T21:49:30.845Z,98351.34
2023-05-03T21:52:02.154Z,98352.13
2023-05-03T21:54:33.403Z,98353.72
2023-05-03T21:57:05.076Z,98352.88
2023-05-03T21:59:36.133Z,98359.72
2023-05-03T22:02:07.404Z,98367.78
2023-05-03T22:04:38.154Z,98367.00
2023-05-03T22:07:09.569Z,98361.94
2023-05-03T22:09:40.097Z,98358.41
2023-05-03T22:12:22.484Z,98359.09
2023-05-03T22:14:55.347Z,98356.72
2023-05-03T22:17:28.173Z,98360.38
2023-05-03T22:19:59.498Z,98363.78
2023-05-03T22:22:30.343Z,98360.13
2023-05-03T22:25:04.557Z,98360.03
2023-05-03T22:27:39.082Z,98351.34
2023-05-03T22:30:11.104Z,98351.78
2023-05-03T22:32:41.685Z,98356.91
2023-05-03T22:35:13.655Z,98359.59
2023-05-03T22:37:44.472Z,98357.06
2023-05-03T22:40:15.693Z,98359.44
2023-05-03T22:42:46.852Z,98353.91
2023-05-03T22:45:17.576Z,98363.41
2023-05-03T22:47:49.745Z,98363.81
2023-05-03T22:50:22.414Z,98365.94
2023-05-03T22:52:52.890Z,98359.59
2023-05-03T22:55:27.669Z,98372.34
2023-05-03T22:57:59.110Z,98372.28
2023-05-03T23:00:29.645Z,98378.44
2023-05-03T23:03:00.951Z,98373.28
2023-05-03T23:05:31.653Z,98384.97
2023-05-03T23:08:03.624Z,98377.97
2023-05-03T23:10:34.157Z,98380.34
2023-05-03T23:13:05.168Z,98376.13
2023-05-03T23:15:36.320Z,98387.56
2023-05-03T23:18:09.164Z,98384.84
2023-05-03T23:20:38.953Z,98390.06
2023-05-03T23:23:10.159Z,98389.63
2023-05-03T23:25:40.901Z,98385.59
2023-05-03T23:28:11.409Z,98381.81
2023-05-03T23:30:51.492Z,98390.84
2023-05-03T23:33:24.012Z,98391.78
2023-05-03T23:35:55.917Z,98384.56
2023-05-03T23:38:27.420Z,98395.00
2023-05-03T23:40:57.913Z,98402.63
2023-05-03T23:43:28.962Z,98398.06
2023-05-03T23:45:59.826Z,98403.47
2023-05-03T23:48:30.990Z,98402.50
2023-05-03T23:51:01.449Z,98411.88
2023-05-03T23:53:32.898Z,98412.94
2023-05-03T23:56:04.051Z,98413.78
2023-05-03T23:58:35.466Z,98420.78
